sensor_id;sensor_type;location;lat;lon;timestamp;temperature;humidity
2783;DHT22;1399;47.072;15.452;2023-02-28T00:00:52;8.40;31.50
2783;DHT22;1399;47.072;15.452;2023-02-28T00:03:18;8.40;31.60
2783;DHT22;1399;47.072;15.452;2023-02-28T00:05:44;8.40;31.60
2783;DHT22;1399;47.072;15.452;2023-02-28T00:08:10;8.40;31.60
2783;DHT22;1399;47.072;15.452;2023-02-28T00:10:36;8.40;31.70
2783;DHT22;1399;47.072;15.452;2023-02-28T00:13:06;8.40;31.70
2783;DHT22;1399;47.072;15.452;2023-02-28T00:15:33;8.40;31.70
2783;DHT22;1399;47.072;15.452;2023-02-28T00:17:59;8.40;31.60
2783;DHT22;1399;47.072;15.452;2023-02-28T00:20:25;8.40;31.60
2783;DHT22;1399;47.072;15.452;2023-02-28T00:22:53;8.40;31.70
2783;DHT22;1399;47.072;15.452;2023-02-28T00:25:21;8.40;31.70
2783;DHT22;1399;47.072;15.452;2023-02-28T00:27:47;8.40;31.60
2783;DHT22;1399;47.072;15.452;2023-02-28T00:30:16;8.40;31.50
2783;DHT22;1399;47.072;15.452;2023-02-28T00:32:43;8.40;31.50
2783;DHT22;1399;47.072;15.452;2023-02-28T00:35:10;8.40;31.60
2783;DHT22;1399;47.072;15.452;2023-02-28T00:37:37;8.40;31.50
2783;DHT22;1399;47.072;15.452;2023-02-28T00:40:03;8.40;31.60
2783;DHT22;1399;47.072;15.452;2023-02-28T00:42:34;8.40;31.70
2783;DHT22;1399;47.072;15.452;2023-02-28T00:44:59;8.40;31.70
2783;DHT22;1399;47.072;15.452;2023-02-28T00:47:26;8.40;31.70
2783;DHT22;1399;47.072;15.452;2023-02-28T00:49:52;8.30;31.60
2783;DHT22;1399;47.072;15.452;2023-02-28T00:52:18;8.30;31.70
2783;DHT22;1399;47.072;15.452;2023-02-28T00:54:43;8.30;31.70
2783;DHT22;1399;47.072;15.452;2023-02-28T00:57:09;8.30;31.70
2783;DHT22;1399;47.072;15.452;2023-02-28T00:59:35;8.30;31.70
2783;DHT22;1399;47.072;15.452;2023-02-28T01:02:01;8.30;31.70
2783;DHT22;1399;47.072;15.452;2023-02-28T01:04:26;8.40;31.80
2783;DHT22;1399;47.072;15.452;2023-02-28T01:06:52;8.30;31.80
2783;DHT22;1399;47.072;15.452;2023-02-28T01:09:18;8.30;31.80
2783;DHT22;1399;47.072;15.452;2023-02-28T01:11:44;8.40;31.90
2783;DHT22;1399;47.072;15.452;2023-02-28T01:14:15;8.30;31.80
2783;DHT22;1399;47.072;15.452;2023-02-28T01:16:41;8.30;31.70
2783;DHT22;1399;47.072;15.452;2023-02-28T01:19:07;8.30;31.70
2783;DHT22;1399;47.072;15.452;2023-02-28T01:21:33;8.30;31.60
2783;DHT22;1399;47.072;15.452;2023-02-28T01:24:00;8.30;31.70
2783;DHT22;1399;47.072;15.452;2023-02-28T01:26:26;8.30;31.70
2783;DHT22;1399;47.072;15.452;2023-02-28T01:28:53;8.30;31.70
2783;DHT22;1399;47.072;15.452;2023-02-28T01:31:20;8.30;31.80
2783;DHT22;1399;47.072;15.452;2023-02-28T01:33:47;8.30;31.80
2783;DHT22;1399;47.072;15.452;2023-02-28T01:36:23;8.30;31.80
2783;DHT22;1399;47.072;15.452;2023-02-28T01:38:50;8.30;31.90
2783;DHT22;1399;47.072;15.452;2023-02-28T01:41:19;8.30;32.00
2783;DHT22;1399;47.072;15.452;2023-02-28T01:46:11;8.30;32.10
2783;DHT22;1399;47.072;15.452;2023-02-28T01:54:11;8.30;32.20
2783;DHT22;1399;47.072;15.452;2023-02-28T01:56:47;8.30;32.30
2783;DHT22;1399;47.072;15.452;2023-02-28T01:59:22;8.30;32.20
2783;DHT22;1399;47.072;15.452;2023-02-28T02:01:49;8.30;32.30
2783;DHT22;1399;47.072;15.452;2023-02-28T02:04:15;8.30;32.30
2783;DHT22;1399;47.072;15.452;2023-02-28T02:06:44;8.30;32.40
2783;DHT22;1399;47.072;15.452;2023-02-28T02:09:11;8.30;32.50
2783;DHT22;1399;47.072;15.452;2023-02-28T02:11:40;8.30;32.50
2783;DHT22;1399;47.072;15.452;2023-02-28T02:14:38;8.30;32.60
2783;DHT22;1399;47.072;15.452;2023-02-28T02:17:26;8.30;32.70
2783;DHT22;1399;47.072;15.452;2023-02-28T02:25:53;8.30;32.90
2783;DHT22;1399;47.072;15.452;2023-02-28T02:34:34;8.20;32.90
2783;DHT22;1399;47.072;15.452;2023-02-28T02:42:24;8.30;33.10
2783;DHT22;1399;47.072;15.452;2023-02-28T02:45:00;8.30;33.10
2783;DHT22;1399;47.072;15.452;2023-02-28T02:47:29;8.20;33.00
2783;DHT22;1399;47.072;15.452;2023-02-28T02:49:58;8.30;33.00
2783;DHT22;1399;47.072;15.452;2023-02-28T02:52:38;8.20;33.00
2783;DHT22;1399;47.072;15.452;2023-02-28T02:55:06;8.20;33.00
2783;DHT22;1399;47.072;15.452;2023-02-28T02:57:45;8.20;33.00
2783;DHT22;1399;47.072;15.452;2023-02-28T03:00:17;8.20;33.10
2783;DHT22;1399;47.072;15.452;2023-02-28T03:02:47;8.30;33.20
2783;DHT22;1399;47.072;15.452;2023-02-28T03:05:26;8.30;33.20
2783;DHT22;1399;47.072;15.452;2023-02-28T03:07:52;8.20;33.20
2783;DHT22;1399;47.072;15.452;2023-02-28T03:16:32;8.20;33.30
2783;DHT22;1399;47.072;15.452;2023-02-28T03:30:48;8.20;33.40
2783;DHT22;1399;47.072;15.452;2023-02-28T03:33:32;8.20;33.50
2783;DHT22;1399;47.072;15.452;2023-02-28T03:36:07;8.20;33.60
2783;DHT22;1399;47.072;15.452;2023-02-28T03:41:32;8.20;33.60
2783;DHT22;1399;47.072;15.452;2023-02-28T03:44:06;8.20;33.60
2783;DHT22;1399;47.072;15.452;2023-02-28T03:46:38;8.20;33.50
2783;DHT22;1399;47.072;15.452;2023-02-28T03:49:12;8.20;33.60
2783;DHT22;1399;47.072;15.452;2023-02-28T03:51:42;8.20;33.60
2783;DHT22;1399;47.072;15.452;2023-02-28T03:54:18;8.20;33.60
2783;DHT22;1399;47.072;15.452;2023-02-28T03:59:47;8.20;33.70
2783;DHT22;1399;47.072;15.452;2023-02-28T04:02:14;8.20;33.70
2783;DHT22;1399;47.072;15.452;2023-02-28T04:04:40;8.30;33.80
2783;DHT22;1399;47.072;15.452;2023-02-28T04:07:11;8.20;33.70
2783;DHT22;1399;47.072;15.452;2023-02-28T04:09:37;8.20;33.60
2783;DHT22;1399;47.072;15.452;2023-02-28T04:12:03;8.20;33.70
2783;DHT22;1399;47.072;15.452;2023-02-28T04:14:29;8.20;33.70
2783;DHT22;1399;47.072;15.452;2023-02-28T04:16:55;8.20;33.80
2783;DHT22;1399;47.072;15.452;2023-02-28T04:19:21;8.20;33.90
2783;DHT22;1399;47.072;15.452;2023-02-28T04:21:49;8.20;33.90
2783;DHT22;1399;47.072;15.452;2023-02-28T04:24:26;8.20;34.00
2783;DHT22;1399;47.072;15.452;2023-02-28T04:26:55;8.20;34.10
2783;DHT22;1399;47.072;15.452;2023-02-28T04:29:24;8.20;34.10
2783;DHT22;1399;47.072;15.452;2023-02-28T04:31:50;8.20;34.10
2783;DHT22;1399;47.072;15.452;2023-02-28T04:34:19;8.20;34.10
2783;DHT22;1399;47.072;15.452;2023-02-28T04:36:45;8.20;34.10
2783;DHT22;1399;47.072;15.452;2023-02-28T04:39:11;8.20;34.10
2783;DHT22;1399;47.072;15.452;2023-02-28T04:41:37;8.20;34.00
2783;DHT22;1399;47.072;15.452;2023-02-28T04:44:03;8.20;33.90
2783;DHT22;1399;47.072;15.452;2023-02-28T04:46:29;8.20;33.80
2783;DHT22;1399;47.072;15.452;2023-02-28T04:48:55;8.20;33.80
2783;DHT22;1399;47.072;15.452;2023-02-28T04:51:21;8.10;34.40
2783;DHT22;1399;47.072;15.452;2023-02-28T04:53:47;8.20;33.80
2783;DHT22;1399;47.072;15.452;2023-02-28T04:56:16;8.20;33.90
2783;DHT22;1399;47.072;15.452;2023-02-28T04:58:42;8.20;33.80
2783;DHT22;1399;47.072;15.452;2023-02-28T05:03:49;8.10;33.80
2783;DHT22;1399;47.072;15.452;2023-02-28T05:06:16;8.10;33.80
2783;DHT22;1399;47.072;15.452;2023-02-28T05:08:42;8.10;33.70
2783;DHT22;1399;47.072;15.452;2023-02-28T05:11:20;8.10;33.80
2783;DHT22;1399;47.072;15.452;2023-02-28T05:13:47;8.10;33.80
2783;DHT22;1399;47.072;15.452;2023-02-28T05:16:14;8.10;33.80
2783;DHT22;1399;47.072;15.452;2023-02-28T05:18:39;8.10;33.80
2783;DHT22;1399;47.072;15.452;2023-02-28T05:21:05;8.10;33.80
2783;DHT22;1399;47.072;15.452;2023-02-28T05:23:32;8.10;33.90
2783;DHT22;1399;47.072;15.452;2023-02-28T05:25:58;8.10;33.90
2783;DHT22;1399;47.072;15.452;2023-02-28T05:28:23;8.10;34.00
2783;DHT22;1399;47.072;15.452;2023-02-28T05:30:49;8.10;34.00
2783;DHT22;1399;47.072;15.452;2023-02-28T05:33:15;8.10;34.00
2783;DHT22;1399;47.072;15.452;2023-02-28T05:35:41;8.10;34.10
2783;DHT22;1399;47.072;15.452;2023-02-28T05:38:08;8.10;34.00
2783;DHT22;1399;47.072;15.452;2023-02-28T05:40:34;8.10;34.10
2783;DHT22;1399;47.072;15.452;2023-02-28T05:43:01;8.10;34.10
2783;DHT22;1399;47.072;15.452;2023-02-28T05:45:26;8.10;34.10
2783;DHT22;1399;47.072;15.452;2023-02-28T05:47:55;8.10;34.10
2783;DHT22;1399;47.072;15.452;2023-02-28T05:50:21;8.10;34.10
2783;DHT22;1399;47.072;15.452;2023-02-28T05:52:51;8.10;34.20
2783;DHT22;1399;47.072;15.452;2023-02-28T05:55:16;8.10;34.20
2783;DHT22;1399;47.072;15.452;2023-02-28T05:57:42;8.10;34.20
2783;DHT22;1399;47.072;15.452;2023-02-28T06:00:09;8.10;34.20
2783;DHT22;1399;47.072;15.452;2023-02-28T06:02:35;8.00;34.20
2783;DHT22;1399;47.072;15.452;2023-02-28T06:05:01;8.10;34.30
2783;DHT22;1399;47.072;15.452;2023-02-28T06:07:27;8.10;34.30
2783;DHT22;1399;47.072;15.452;2023-02-28T06:09:53;8.10;34.30
2783;DHT22;1399;47.072;15.452;2023-02-28T06:12:19;8.10;34.40
2783;DHT22;1399;47.072;15.452;2023-02-28T06:14:44;8.10;34.40
2783;DHT22;1399;47.072;15.452;2023-02-28T06:17:10;8.10;34.30
2783;DHT22;1399;47.072;15.452;2023-02-28T06:19:38;8.10;34.30
2783;DHT22;1399;47.072;15.452;2023-02-28T06:22:06;8.10;34.40
2783;DHT22;1399;47.072;15.452;2023-02-28T06:24:32;8.10;34.40
2783;DHT22;1399;47.072;15.452;2023-02-28T06:26:58;8.10;34.40
2783;DHT22;1399;47.072;15.452;2023-02-28T06:29:32;8.10;34.40
2783;DHT22;1399;47.072;15.452;2023-02-28T06:31:58;8.10;34.40
2783;DHT22;1399;47.072;15.452;2023-02-28T06:34:23;8.10;34.40
2783;DHT22;1399;47.072;15.452;2023-02-28T06:36:51;8.10;34.40
2783;DHT22;1399;47.072;15.452;2023-02-28T06:39:17;8.20;34.50
2783;DHT22;1399;47.072;15.452;2023-02-28T06:41:44;8.20;34.40
2783;DHT22;1399;47.072;15.452;2023-02-28T06:44:16;8.20;34.50
2783;DHT22;1399;47.072;15.452;2023-02-28T06:46:43;8.20;34.50
2783;DHT22;1399;47.072;15.452;2023-02-28T06:49:10;8.20;34.50
2783;DHT22;1399;47.072;15.452;2023-02-28T06:51:39;8.30;34.60
2783;DHT22;1399;47.072;15.452;2023-02-28T06:54:07;8.30;34.50
2783;DHT22;1399;47.072;15.452;2023-02-28T06:56:36;8.30;34.50
2783;DHT22;1399;47.072;15.452;2023-02-28T06:59:02;8.40;34.60
2783;DHT22;1399;47.072;15.452;2023-02-28T07:01:29;8.40;34.60
2783;DHT22;1399;47.072;15.452;2023-02-28T07:03:57;8.40;34.50
2783;DHT22;1399;47.072;15.452;2023-02-28T07:06:24;8.40;34.50
2783;DHT22;1399;47.072;15.452;2023-02-28T07:08:51;8.40;34.50
2783;DHT22;1399;47.072;15.452;2023-02-28T07:11:25;8.50;34.90
2783;DHT22;1399;47.072;15.452;2023-02-28T07:13:55;8.50;34.50
2783;DHT22;1399;47.072;15.452;2023-02-28T07:16:22;8.50;34.50
2783;DHT22;1399;47.072;15.452;2023-02-28T07:18:49;8.50;34.50
2783;DHT22;1399;47.072;15.452;2023-02-28T07:21:15;8.50;34.50
2783;DHT22;1399;47.072;15.452;2023-02-28T07:23:41;8.50;34.60
2783;DHT22;1399;47.072;15.452;2023-02-28T07:26:11;8.50;34.60
2783;DHT22;1399;47.072;15.452;2023-02-28T07:28:45;8.60;34.70
2783;DHT22;1399;47.072;15.452;2023-02-28T07:31:12;8.60;34.70
2783;DHT22;1399;47.072;15.452;2023-02-28T07:33:40;8.60;34.50
2783;DHT22;1399;47.072;15.452;2023-02-28T07:36:09;8.60;35.20
2783;DHT22;1399;47.072;15.452;2023-02-28T07:38:39;8.60;34.60
2783;DHT22;1399;47.072;15.452;2023-02-28T07:41:05;8.60;34.70
2783;DHT22;1399;47.072;15.452;2023-02-28T07:43:32;8.60;34.60
2783;DHT22;1399;47.072;15.452;2023-02-28T07:46:06;8.60;34.60
2783;DHT22;1399;47.072;15.452;2023-02-28T07:48:32;8.60;34.60
2783;DHT22;1399;47.072;15.452;2023-02-28T07:50:59;8.70;34.60
2783;DHT22;1399;47.072;15.452;2023-02-28T07:53:26;8.70;34.70
2783;DHT22;1399;47.072;15.452;2023-02-28T07:55:55;8.60;34.60
2783;DHT22;1399;47.072;15.452;2023-02-28T07:58:22;8.70;34.70
2783;DHT22;1399;47.072;15.452;2023-02-28T08:00:47;8.70;34.70
2783;DHT22;1399;47.072;15.452;2023-02-28T08:03:13;8.70;34.70
2783;DHT22;1399;47.072;15.452;2023-02-28T08:05:40;8.70;34.70
2783;DHT22;1399;47.072;15.452;2023-02-28T08:08:07;8.70;34.80
2783;DHT22;1399;47.072;15.452;2023-02-28T08:10:33;8.80;34.80
2783;DHT22;1399;47.072;15.452;2023-02-28T08:12:58;8.80;34.80
2783;DHT22;1399;47.072;15.452;2023-02-28T08:15:24;8.80;34.80
2783;DHT22;1399;47.072;15.452;2023-02-28T08:17:50;8.80;34.80
2783;DHT22;1399;47.072;15.452;2023-02-28T08:20:16;8.80;34.80
2783;DHT22;1399;47.072;15.452;2023-02-28T08:22:42;8.80;34.80
2783;DHT22;1399;47.072;15.452;2023-02-28T08:25:08;8.90;34.90
2783;DHT22;1399;47.072;15.452;2023-02-28T08:27:35;8.90;34.80
2783;DHT22;1399;47.072;15.452;2023-02-28T08:30:01;8.90;34.70
2783;DHT22;1399;47.072;15.452;2023-02-28T08:32:27;8.90;34.80
2783;DHT22;1399;47.072;15.452;2023-02-28T08:34:53;8.90;34.80
2783;DHT22;1399;47.072;15.452;2023-02-28T08:37:18;9.00;34.90
2783;DHT22;1399;47.072;15.452;2023-02-28T08:39:44;9.00;34.90
2783;DHT22;1399;47.072;15.452;2023-02-28T08:42:10;9.00;34.80
2783;DHT22;1399;47.072;15.452;2023-02-28T08:44:36;9.10;34.80
2783;DHT22;1399;47.072;15.452;2023-02-28T08:47:02;9.10;34.90
2783;DHT22;1399;47.072;15.452;2023-02-28T08:49:27;9.10;34.90
2783;DHT22;1399;47.072;15.452;2023-02-28T08:51:54;9.20;35.00
2783;DHT22;1399;47.072;15.452;2023-02-28T08:54:21;9.20;34.90
2783;DHT22;1399;47.072;15.452;2023-02-28T08:56:48;9.20;34.80
2783;DHT22;1399;47.072;15.452;2023-02-28T08:59:14;9.30;35.00
2783;DHT22;1399;47.072;15.452;2023-02-28T09:01:40;9.30;35.20
2783;DHT22;1399;47.072;15.452;2023-02-28T09:04:07;9.30;35.20
2783;DHT22;1399;47.072;15.452;2023-02-28T09:06:35;9.40;35.30
2783;DHT22;1399;47.072;15.452;2023-02-28T09:09:01;9.40;35.10
2783;DHT22;1399;47.072;15.452;2023-02-28T09:11:27;9.40;34.90
2783;DHT22;1399;47.072;15.452;2023-02-28T09:13:54;9.40;34.80
2783;DHT22;1399;47.072;15.452;2023-02-28T09:16:21;9.40;34.60
2783;DHT22;1399;47.072;15.452;2023-02-28T09:18:47;9.50;34.70
2783;DHT22;1399;47.072;15.452;2023-02-28T09:21:18;9.50;34.70
2783;DHT22;1399;47.072;15.452;2023-02-28T09:23:45;9.50;34.70
2783;DHT22;1399;47.072;15.452;2023-02-28T09:26:16;9.50;34.70
2783;DHT22;1399;47.072;15.452;2023-02-28T09:28:42;9.60;34.90
2783;DHT22;1399;47.072;15.452;2023-02-28T09:31:17;9.60;34.70
2783;DHT22;1399;47.072;15.452;2023-02-28T09:33:50;9.60;34.80
2783;DHT22;1399;47.072;15.452;2023-02-28T09:36:16;9.70;34.80
2783;DHT22;1399;47.072;15.452;2023-02-28T09:38:42;9.70;34.60
2783;DHT22;1399;47.072;15.452;2023-02-28T09:41:20;9.70;34.50
2783;DHT22;1399;47.072;15.452;2023-02-28T09:43:50;9.80;34.40
2783;DHT22;1399;47.072;15.452;2023-02-28T09:48:53;9.80;34.40
2783;DHT22;1399;47.072;15.452;2023-02-28T09:53:59;9.90;34.30
2783;DHT22;1399;47.072;15.452;2023-02-28T09:56:39;9.90;34.10
2783;DHT22;1399;47.072;15.452;2023-02-28T10:01:56;10.00;33.30
2783;DHT22;1399;47.072;15.452;2023-02-28T10:04:34;10.10;33.20
2783;DHT22;1399;47.072;15.452;2023-02-28T10:07:11;10.10;33.10
2783;DHT22;1399;47.072;15.452;2023-02-28T10:09:43;10.10;33.00
2783;DHT22;1399;47.072;15.452;2023-02-28T10:12:11;10.20;33.00
2783;DHT22;1399;47.072;15.452;2023-02-28T10:14:39;10.20;33.00
2783;DHT22;1399;47.072;15.452;2023-02-28T10:17:14;10.30;32.80
2783;DHT22;1399;47.072;15.452;2023-02-28T10:20:00;10.30;32.90
2783;DHT22;1399;47.072;15.452;2023-02-28T10:22:55;10.40;32.80
2783;DHT22;1399;47.072;15.452;2023-02-28T10:25:27;10.40;32.50
2783;DHT22;1399;47.072;15.452;2023-02-28T10:27:54;10.50;32.40
2783;DHT22;1399;47.072;15.452;2023-02-28T10:30:21;10.50;32.30
2783;DHT22;1399;47.072;15.452;2023-02-28T10:32:51;10.60;32.30
2783;DHT22;1399;47.072;15.452;2023-02-28T10:35:24;10.70;32.70
2783;DHT22;1399;47.072;15.452;2023-02-28T10:37:55;10.70;32.70
2783;DHT22;1399;47.072;15.452;2023-02-28T10:42:59;10.80;32.70
2783;DHT22;1399;47.072;15.452;2023-02-28T10:45:26;10.90;32.80
2783;DHT22;1399;47.072;15.452;2023-02-28T10:50:37;11.00;32.60
2783;DHT22;1399;47.072;15.452;2023-02-28T10:55:40;11.00;31.80
2783;DHT22;1399;47.072;15.452;2023-02-28T10:58:46;11.10;31.80
2783;DHT22;1399;47.072;15.452;2023-02-28T11:01:18;11.10;31.90
2783;DHT22;1399;47.072;15.452;2023-02-28T11:03:44;11.10;32.20
2783;DHT22;1399;47.072;15.452;2023-02-28T11:06:17;11.20;32.40
2783;DHT22;1399;47.072;15.452;2023-02-28T11:08:46;11.20;32.60
2783;DHT22;1399;47.072;15.452;2023-02-28T11:11:13;11.20;32.60
2783;DHT22;1399;47.072;15.452;2023-02-28T11:13:39;11.30;32.70
2783;DHT22;1399;47.072;15.452;2023-02-28T11:16:10;11.30;32.50
2783;DHT22;1399;47.072;15.452;2023-02-28T11:18:54;11.30;32.40
2783;DHT22;1399;47.072;15.452;2023-02-28T11:21:32;11.40;32.90
2783;DHT22;1399;47.072;15.452;2023-02-28T11:26:57;11.50;32.90
2783;DHT22;1399;47.072;15.452;2023-02-28T11:29:24;11.50;32.50
2783;DHT22;1399;47.072;15.452;2023-02-28T11:32:11;11.50;32.30
2783;DHT22;1399;47.072;15.452;2023-02-28T11:34:38;11.60;32.30
2783;DHT22;1399;47.072;15.452;2023-02-28T11:37:13;11.60;32.40
2783;DHT22;1399;47.072;15.452;2023-02-28T11:39:40;11.60;32.50
2783;DHT22;1399;47.072;15.452;2023-02-28T11:45:20;11.70;32.10
2783;DHT22;1399;47.072;15.452;2023-02-28T11:48:09;11.70;32.20
2783;DHT22;1399;47.072;15.452;2023-02-28T12:01:33;11.80;32.10
2783;DHT22;1399;47.072;15.452;2023-02-28T12:06:55;11.90;32.50
2783;DHT22;1399;47.072;15.452;2023-02-28T12:15:20;12.00;32.80
2783;DHT22;1399;47.072;15.452;2023-02-28T12:18:07;12.00;32.60
2783;DHT22;1399;47.072;15.452;2023-02-28T12:28:49;12.00;32.20
2783;DHT22;1399;47.072;15.452;2023-02-28T12:31:33;12.00;32.00
2783;DHT22;1399;47.072;15.452;2023-02-28T12:34:04;12.00;31.90
2783;DHT22;1399;47.072;15.452;2023-02-28T12:36:33;12.00;31.90
2783;DHT22;1399;47.072;15.452;2023-02-28T12:39:08;12.00;31.90
2783;DHT22;1399;47.072;15.452;2023-02-28T12:41:49;12.00;32.10
2783;DHT22;1399;47.072;15.452;2023-02-28T12:44:30;12.00;32.20
2783;DHT22;1399;47.072;15.452;2023-02-28T12:47:02;12.00;32.30
2783;DHT22;1399;47.072;15.452;2023-02-28T12:49:45;12.10;32.50
2783;DHT22;1399;47.072;15.452;2023-02-28T12:52:13;12.10;32.40
2783;DHT22;1399;47.072;15.452;2023-02-28T12:58:04;12.10;32.90
2783;DHT22;1399;47.072;15.452;2023-02-28T13:00:20;12.10;33.20
2783;DHT22;1399;47.072;15.452;2023-02-28T13:03:40;12.20;33.20
2783;DHT22;1399;47.072;15.452;2023-02-28T13:09:04;12.20;33.40
2783;DHT22;1399;47.072;15.452;2023-02-28T13:11:38;12.20;33.60
2783;DHT22;1399;47.072;15.452;2023-02-28T13:14:19;12.20;33.40
2783;DHT22;1399;47.072;15.452;2023-02-28T13:19:44;12.20;33.10
2783;DHT22;1399;47.072;15.452;2023-02-28T13:22:42;12.10;32.90
2783;DHT22;1399;47.072;15.452;2023-02-28T13:27:48;12.20;33.40
2783;DHT22;1399;47.072;15.452;2023-02-28T13:38:35;12.10;34.20
2783;DHT22;1399;47.072;15.452;2023-02-28T13:41:42;12.00;33.70
2783;DHT22;1399;47.072;15.452;2023-02-28T13:44:21;12.00;33.70
2783;DHT22;1399;47.072;15.452;2023-02-28T13:49:27;12.00;34.00
2783;DHT22;1399;47.072;15.452;2023-02-28T13:57:47;11.90;34.20
2783;DHT22;1399;47.072;15.452;2023-02-28T14:00:23;11.90;34.20
2783;DHT22;1399;47.072;15.452;2023-02-28T14:03:08;11.90;34.00
2783;DHT22;1399;47.072;15.452;2023-02-28T14:05:36;11.90;34.10
2783;DHT22;1399;47.072;15.452;2023-02-28T14:08:21;11.80;34.30
2783;DHT22;1399;47.072;15.452;2023-02-28T14:10:50;11.80;34.40
2783;DHT22;1399;47.072;15.452;2023-02-28T14:13:42;11.70;34.20
2783;DHT22;1399;47.072;15.452;2023-02-28T14:16:14;11.70;34.20
2783;DHT22;1399;47.072;15.452;2023-02-28T14:19:31;11.60;34.20
2783;DHT22;1399;47.072;15.452;2023-02-28T14:21:43;11.60;34.20
2783;DHT22;1399;47.072;15.452;2023-02-28T14:27:32;11.40;34.20
2783;DHT22;1399;47.072;15.452;2023-02-28T14:32:58;11.30;34.10
2783;DHT22;1399;47.072;15.452;2023-02-28T14:37:53;11.20;34.10
2783;DHT22;1399;47.072;15.452;2023-02-28T14:40:34;11.20;34.20
2783;DHT22;1399;47.072;15.452;2023-02-28T14:43:03;11.10;34.20
2783;DHT22;1399;47.072;15.452;2023-02-28T14:45:31;11.10;34.30
2783;DHT22;1399;47.072;15.452;2023-02-28T14:47:59;11.10;34.50
2783;DHT22;1399;47.072;15.452;2023-02-28T14:50:31;11.00;34.40
2783;DHT22;1399;47.072;15.452;2023-02-28T14:52:57;11.00;34.40
2783;DHT22;1399;47.072;15.452;2023-02-28T14:55:30;11.00;34.40
2783;DHT22;1399;47.072;15.452;2023-02-28T14:57:59;10.90;34.50
2783;DHT22;1399;47.072;15.452;2023-02-28T15:00:28;10.90;34.60
2783;DHT22;1399;47.072;15.452;2023-02-28T15:02:56;10.80;34.70
2783;DHT22;1399;47.072;15.452;2023-02-28T15:05:33;10.80;34.80
2783;DHT22;1399;47.072;15.452;2023-02-28T15:08:15;10.80;34.90
2783;DHT22;1399;47.072;15.452;2023-02-28T15:10:56;10.80;34.90
2783;DHT22;1399;47.072;15.452;2023-02-28T15:16:04;10.70;34.90
2783;DHT22;1399;47.072;15.452;2023-02-28T15:18:38;10.70;34.90
2783;DHT22;1399;47.072;15.452;2023-02-28T15:21:16;10.70;35.00
2783;DHT22;1399;47.072;15.452;2023-02-28T15:23:46;10.70;35.10
2783;DHT22;1399;47.072;15.452;2023-02-28T15:26:20;10.60;35.10
2783;DHT22;1399;47.072;15.452;2023-02-28T15:28:47;10.60;34.90
2783;DHT22;1399;47.072;15.452;2023-02-28T15:31:35;10.60;34.90
2783;DHT22;1399;47.072;15.452;2023-02-28T15:34:12;10.60;35.00
2783;DHT22;1399;47.072;15.452;2023-02-28T15:36:41;10.60;35.10
2783;DHT22;1399;47.072;15.452;2023-02-28T15:39:22;10.60;35.30
2783;DHT22;1399;47.072;15.452;2023-02-28T15:41:49;10.50;35.30
2783;DHT22;1399;47.072;15.452;2023-02-28T15:44:27;10.50;35.20
2783;DHT22;1399;47.072;15.452;2023-02-28T15:47:12;10.50;35.30
2783;DHT22;1399;47.072;15.452;2023-02-28T15:49:46;10.50;35.40
2783;DHT22;1399;47.072;15.452;2023-02-28T15:52:16;10.50;35.50
2783;DHT22;1399;47.072;15.452;2023-02-28T15:54:43;10.50;35.50
2783;DHT22;1399;47.072;15.452;2023-02-28T15:57:23;10.50;35.60
2783;DHT22;1399;47.072;15.452;2023-02-28T16:00:00;10.50;35.70
2783;DHT22;1399;47.072;15.452;2023-02-28T16:02:33;10.40;35.70
2783;DHT22;1399;47.072;15.452;2023-02-28T16:07:28;10.40;35.70
2783;DHT22;1399;47.072;15.452;2023-02-28T16:09:54;10.40;35.80
2783;DHT22;1399;47.072;15.452;2023-02-28T16:12:22;10.40;35.90
2783;DHT22;1399;47.072;15.452;2023-02-28T16:14:52;10.40;36.00
2783;DHT22;1399;47.072;15.452;2023-02-28T16:17:24;10.40;35.90
2783;DHT22;1399;47.072;15.452;2023-02-28T16:19:51;10.40;35.80
2783;DHT22;1399;47.072;15.452;2023-02-28T16:22:16;10.40;36.00
2783;DHT22;1399;47.072;15.452;2023-02-28T16:24:42;10.40;36.40
2783;DHT22;1399;47.072;15.452;2023-02-28T16:27:20;10.40;36.40
2783;DHT22;1399;47.072;15.452;2023-02-28T16:29:47;10.40;36.50
2783;DHT22;1399;47.072;15.452;2023-02-28T16:32:15;10.30;36.60
2783;DHT22;1399;47.072;15.452;2023-02-28T16:34:42;10.30;36.60
2783;DHT22;1399;47.072;15.452;2023-02-28T16:37:17;10.30;36.50
2783;DHT22;1399;47.072;15.452;2023-02-28T16:39:44;10.30;36.40
2783;DHT22;1399;47.072;15.452;2023-02-28T16:42:25;10.30;36.40
2783;DHT22;1399;47.072;15.452;2023-02-28T16:44:52;10.30;36.70
2783;DHT22;1399;47.072;15.452;2023-02-28T16:47:19;10.30;36.80
2783;DHT22;1399;47.072;15.452;2023-02-28T16:49:45;10.20;36.80
2783;DHT22;1399;47.072;15.452;2023-02-28T16:52:13;10.20;36.80
2783;DHT22;1399;47.072;15.452;2023-02-28T16:54:40;10.20;37.00
2783;DHT22;1399;47.072;15.452;2023-02-28T16:57:20;10.20;37.00
2783;DHT22;1399;47.072;15.452;2023-02-28T16:59:47;10.20;37.00
2783;DHT22;1399;47.072;15.452;2023-02-28T17:02:15;10.20;37.00
2783;DHT22;1399;47.072;15.452;2023-02-28T17:04:43;10.20;37.00
2783;DHT22;1399;47.072;15.452;2023-02-28T17:07:12;10.20;37.10
2783;DHT22;1399;47.072;15.452;2023-02-28T17:09:38;10.20;37.20
2783;DHT22;1399;47.072;15.452;2023-02-28T17:12:04;10.20;37.40
2783;DHT22;1399;47.072;15.452;2023-02-28T17:14:31;10.20;37.40
2783;DHT22;1399;47.072;15.452;2023-02-28T17:16:56;10.10;37.40
2783;DHT22;1399;47.072;15.452;2023-02-28T17:19:22;10.10;37.50
2783;DHT22;1399;47.072;15.452;2023-02-28T17:21:49;10.10;37.50
2783;DHT22;1399;47.072;15.452;2023-02-28T17:24:15;10.10;37.60
2783;DHT22;1399;47.072;15.452;2023-02-28T17:26:42;10.10;37.60
2783;DHT22;1399;47.072;15.452;2023-02-28T17:29:20;10.10;37.70
2783;DHT22;1399;47.072;15.452;2023-02-28T17:31:47;10.10;37.70
2783;DHT22;1399;47.072;15.452;2023-02-28T17:34:13;10.10;37.70
2783;DHT22;1399;47.072;15.452;2023-02-28T17:36:46;10.10;37.80
2783;DHT22;1399;47.072;15.452;2023-02-28T17:39:13;10.10;37.80
2783;DHT22;1399;47.072;15.452;2023-02-28T17:41:42;10.10;37.80
2783;DHT22;1399;47.072;15.452;2023-02-28T17:44:08;10.10;37.80
2783;DHT22;1399;47.072;15.452;2023-02-28T17:46:34;10.10;37.90
2783;DHT22;1399;47.072;15.452;2023-02-28T17:49:01;10.00;37.90
2783;DHT22;1399;47.072;15.452;2023-02-28T17:51:27;10.00;37.90
2783;DHT22;1399;47.072;15.452;2023-02-28T17:53:53;10.00;38.00
2783;DHT22;1399;47.072;15.452;2023-02-28T17:56:22;10.00;38.00
2783;DHT22;1399;47.072;15.452;2023-02-28T17:58:50;10.00;38.10
2783;DHT22;1399;47.072;15.452;2023-02-28T18:01:16;10.00;38.10
2783;DHT22;1399;47.072;15.452;2023-02-28T18:03:42;10.00;38.10
2783;DHT22;1399;47.072;15.452;2023-02-28T18:08:47;10.00;38.10
2783;DHT22;1399;47.072;15.452;2023-02-28T18:11:15;10.00;38.10
2783;DHT22;1399;47.072;15.452;2023-02-28T18:13:46;10.00;38.30
2783;DHT22;1399;47.072;15.452;2023-02-28T18:16:13;9.90;38.90
2783;DHT22;1399;47.072;15.452;2023-02-28T18:18:40;10.00;38.20
2783;DHT22;1399;47.072;15.452;2023-02-28T18:21:08;9.90;39.10
2783;DHT22;1399;47.072;15.452;2023-02-28T18:23:35;9.90;39.00
2783;DHT22;1399;47.072;15.452;2023-02-28T18:26:06;9.90;39.00
2783;DHT22;1399;47.072;15.452;2023-02-28T18:28:33;9.90;39.10
2783;DHT22;1399;47.072;15.452;2023-02-28T18:31:10;9.90;39.20
2783;DHT22;1399;47.072;15.452;2023-02-28T18:33:37;9.90;39.10
2783;DHT22;1399;47.072;15.452;2023-02-28T18:36:04;9.90;39.20
2783;DHT22;1399;47.072;15.452;2023-02-28T18:38:31;9.90;39.20